Irish Sea — WDB5555 — position and weather

sailwx.info

Track history (hours):
 
Tides and Currents Weather Stations Pressure Air Temp Water Temp Dewpoint Dewpoint Depression Visibility Wind Speed Wind Dir Waves Ship Positions

Irish Sea

Owner: Kirby Offshore Marine, LLC, Staten Island, NY. More information available from US FCC via Universal Licensing System and Coast Guard Vessel Documentation Center.

Last reported at 2015-Aug-01 19:33 UTC. Time now 2015-Aug-01 20:18 UTC.
Position N 38°49' W 075°01'.

Length 156 m; draft 6.8 m.

Type: Ship (hazmat cat B). MMSI: 366910920.

Date/timePositionNaut miles runAvg speedWind from/ knotsBaromVisibWave heightAir tempDewpointWater temp
2015-Aug-01 19:33N 38°49' W 075°01'63 8.6
2015-Aug-01 12:15N 39°34' W 074°05'6 9.2
2015-Aug-01 11:34N 39°40' W 074°01'9 9.0
2015-Aug-01 10:33N 39°49' W 073°57'9 9.2
2015-Aug-01 09:33N 39°58' W 073°56'9 8.7
2015-Aug-01 08:33N 40°06' W 073°57'11 9.1
2015-Aug-01 07:18N 40°18' W 073°55'8 9.7
2015-Aug-01 06:27N 40°26' W 073°54'8 9.5
2015-Aug-01 05:33N 40°33' W 074°02'7 7.0
2015-Aug-01 04:33N 40°39' W 074°03'5 5.5
2015-Aug-01 03:33N 40°39' W 074°10'0 0.0
2015-Aug-01 02:05N 40°39' W 074°10'0 0.0
2015-Aug-01 01:16N 40°39' W 074°10'2 3.3
2015-Aug-01 00:34N 40°39' W 074°07'2 2.3
2015-Jul-31 23:33N 40°39' W 074°10'0 0.0
2015-Jul-31 22:33N 40°39' W 074°10'3 0.6
2015-Jul-31 18:18N 40°39' W 074°07'0 0.0
2015-Jul-31 13:12N 40°39' W 074°07'3 4.8
2015-Jul-31 12:33N 40°40' W 074°03'0 0.3
2015-Jul-31 11:33N 40°40' W 074°03'6 6.2
2015-Jul-31 10:33N 40°45' W 073°58'4 4.2
2015-Jul-31 09:33N 40°48' W 073°54'0 0.0
2015-Jul-31 08:33N 40°48' W 073°54'0 0.0
2015-Jul-31 07:28N 40°48' W 073°54'0 0.0
2015-Jul-31 06:32N 40°48' W 073°54'0 0.0
2015-Jul-31 04:29N 40°48' W 073°54'0 0.0
2015-Jul-31 02:23N 40°48' W 073°54'3 0.2
2015-Jul-30 13:15N 40°46' W 073°57'5 7.5
2015-Jul-30 12:34N 40°41' W 074°01'3 2.8
2015-Jul-30 11:31N 40°39' W 074°03'0 0.0
2015-Jul-30 10:31N 40°39' W 074°03'0 0.1
2015-Jul-30 09:31N 40°39' W 074°03'0 0.2
2015-Jul-30 08:31N 40°39' W 074°03'0 0.0
2015-Jul-30 07:31N 40°39' W 074°03'0 0.0
2015-Jul-30 06:33N 40°39' W 074°03'4 3.6
2015-Jul-30 05:33N 40°35' W 074°02'10 5.1
2015-Jul-30 03:31N 40°27' W 073°53'8 7.6
2015-Jul-30 02:28N 40°19' W 073°54'8 8.4
2015-Jul-30 01:33N 40°11' W 073°55'8 8.1
2015-Jul-30 00:33N 40°03' W 073°56'8 8.1
2015-Jul-29 23:33N 39°55' W 073°57'8 8.0
2015-Jul-29 22:33N 39°47' W 073°57'8 7.9
2015-Jul-29 21:32N 39°40' W 074°01'9 7.8
2015-Jul-29 20:24N 39°32' W 074°07'7 7.6
2015-Jul-29 19:28N 39°26' W 074°11'53 7.6
2015-Jul-29 12:33N 38°48' W 074°58'6 6.3
2015-Jul-29 11:33N 38°53' W 075°04'7 6.1
2015-Jul-29 10:27N 38°59' W 075°08'5 5.9
2015-Jul-29 09:33N 39°04' W 075°10'7 6.2
2015-Jul-29 08:29N 39°09' W 075°15'8 8.1
2015-Jul-29 07:33N 39°16' W 075°20'10 9.6
2015-Jul-29 06:33N 39°23' W 075°29'9 8.9
2015-Jul-29 05:33N 39°31' W 075°33'5 4.5
2015-Jul-29 04:33N 39°35' W 075°36'0 0.0
2015-Jul-29 03:33N 39°35' W 075°36'0 0.0
2015-Jul-29 02:31N 39°35' W 075°36'0 0.0
2015-Jul-29 01:31N 39°35' W 075°36'0 0.0
2015-Jul-29 00:31N 39°35' W 075°36'0 0.0
2015-Jul-28 23:31N 39°35' W 075°36'0 0.0
2015-Jul-28 22:31N 39°35' W 075°36'0 0.0
2015-Jul-28 21:31N 39°35' W 075°36'0 0.0
2015-Jul-28 20:25N 39°35' W 075°36'0 0.0
2015-Jul-28 19:31N 39°35' W 075°36'0 0.0
2015-Jul-28 18:31N 39°35' W 075°36'0 0.0
2015-Jul-28 17:31N 39°35' W 075°36'0 0.0
2015-Jul-28 16:31N 39°35' W 075°36'0 0.0
2015-Jul-28 15:31N 39°35' W 075°36'0 0.0
2015-Jul-28 14:31N 39°35' W 075°36'0 0.0
2015-Jul-28 13:31N 39°35' W 075°36'0 0.0
2015-Jul-28 12:33N 39°35' W 075°36'0 0.0
2015-Jul-28 11:33N 39°35' W 075°36'0 0.0
2015-Jul-28 10:33N 39°35' W 075°35'3 2.8
2015-Jul-28 09:33N 39°33' W 075°33'0 0.1
2015-Jul-28 08:31N 39°33' W 075°33'0 0.0
2015-Jul-28 07:31N 39°33' W 075°33'0 0.0
2015-Jul-28 06:31N 39°33' W 075°33'0 0.0
2015-Jul-28 05:31N 39°33' W 075°33'0 0.0
2015-Jul-28 04:31N 39°33' W 075°33'0 0.0
2015-Jul-28 03:31N 39°33' W 075°33'0 0.2
2015-Jul-28 02:31N 39°33' W 075°33'0 0.0
2015-Jul-28 01:31N 39°33' W 075°33'0 0.0
2015-Jul-28 00:31N 39°33' W 075°33'0 0.0
2015-Jul-27 23:31N 39°33' W 075°33'0 0.0
2015-Jul-27 22:31N 39°33' W 075°33'0 0.0
2015-Jul-27 21:31N 39°33' W 075°33'0 0.1
2015-Jul-27 20:31N 39°33' W 075°33'0 0.2
2015-Jul-27 19:31N 39°33' W 075°33'0 0.0
2015-Jul-27 18:34N 39°33' W 075°33'0 0.0
2015-Jul-27 17:33N 39°33' W 075°33'0 0.0
2015-Jul-27 16:33N 39°33' W 075°33'0 0.0
2015-Jul-27 15:33N 39°33' W 075°33'0 0.0
2015-Jul-27 14:33N 39°33' W 075°33'0 0.2
2015-Jul-27 13:33N 39°33' W 075°33'0 0.1
2015-Jul-27 12:33N 39°33' W 075°33'0 0.0
2015-Jul-27 11:33N 39°33' W 075°33'0 0.0
2015-Jul-27 10:33N 39°33' W 075°33'0 0.0
2015-Jul-27 09:33N 39°33' W 075°33'0 0.2
2015-Jul-27 08:33N 39°33' W 075°33'0 0.0
2015-Jul-27 07:33N 39°33' W 075°33'0 0.0
2015-Jul-27 06:33N 39°33' W 075°33'0 0.0
2015-Jul-27 05:33N 39°33' W 075°33'0 0.0
2015-Jul-27 04:33N 39°33' W 075°33'0 0.0
2015-Jul-27 03:33N 39°33' W 075°33'0 0.1
2015-Jul-27 02:33N 39°33' W 075°33'0 0.1
2015-Jul-27 01:33N 39°33' W 075°33'0 0.1
2015-Jul-27 00:33N 39°33' W 075°33'0 0.0
2015-Jul-26 23:33N 39°33' W 075°33'0 0.0
2015-Jul-26 22:33N 39°33' W 075°33'0 0.0
2015-Jul-26 21:33N 39°33' W 075°33'0 0.0
2015-Jul-26 20:33N 39°33' W 075°33'0 0.0
2015-Jul-26 19:33N 39°33' W 075°33'0 0.2
2015-Jul-26 18:33N 39°33' W 075°33'0 0.0
2015-Jul-26 17:33N 39°33' W 075°33'0 0.0
2015-Jul-26 16:33N 39°33' W 075°33'0 0.0
2015-Jul-26 15:33N 39°33' W 075°33'0 0.0
2015-Jul-26 14:33N 39°33' W 075°33'0 0.0
2015-Jul-26 13:33N 39°33' W 075°33'0 0.2
2015-Jul-26 12:33N 39°33' W 075°33'0 0.1
2015-Jul-26 11:33N 39°33' W 075°33'0 0.0
2015-Jul-26 10:34N 39°33' W 075°33'6 5.9
2015-Jul-26 09:33N 39°27' W 075°34'1010.1
2015-Jul-26 08:33N 39°20' W 075°25'1010.1
2015-Jul-26 07:34N 39°12' W 075°17'1010.3
2015-Jul-26 06:33N 39°03' W 075°10'1010.5
2015-Jul-26 05:33N 38°53' W 075°04'9 9.4
2015-Jul-26 04:33N 38°45' W 074°58'10 9.6
2015-Jul-26 03:34N 38°36' W 074°58'11 9.5
2015-Jul-26 02:24N 38°25' W 074°58'  
Track history (hours):
 
Tides and Currents Weather Stations Pressure Air Temp Water Temp Dewpoint Dewpoint Depression Visibility Wind Speed Wind Dir Waves Ship Positions

Irish Sea

Owner: Kirby Offshore Marine, LLC, Staten Island, NY. More information available from US FCC via Universal Licensing System and Coast Guard Vessel Documentation Center.

Last reported at 2015-Aug-01 19:33 UTC. Time now 2015-Aug-01 20:18 UTC.
Position N 38°49' W 075°01'.

Length 156 m; draft 6.8 m.

Type: Ship (hazmat cat B). MMSI: 366910920.

Date/timePositionNaut miles runAvg speedWind from/ knotsBaromVisibWave heightAir tempDewpointWater temp
2015-Aug-01 19:33N 38°49' W 075°01'63 8.6
2015-Aug-01 12:15N 39°34' W 074°05'6 9.2
2015-Aug-01 11:34N 39°40' W 074°01'9 9.0
2015-Aug-01 10:33N 39°49' W 073°57'9 9.2
2015-Aug-01 09:33N 39°58' W 073°56'9 8.7
2015-Aug-01 08:33N 40°06' W 073°57'11 9.1
2015-Aug-01 07:18N 40°18' W 073°55'8 9.7
2015-Aug-01 06:27N 40°26' W 073°54'8 9.5
2015-Aug-01 05:33N 40°33' W 074°02'7 7.0
2015-Aug-01 04:33N 40°39' W 074°03'5 5.5
2015-Aug-01 03:33N 40°39' W 074°10'0 0.0
2015-Aug-01 02:05N 40°39' W 074°10'0 0.0
2015-Aug-01 01:16N 40°39' W 074°10'2 3.3
2015-Aug-01 00:34N 40°39' W 074°07'2 2.3
2015-Jul-31 23:33N 40°39' W 074°10'0 0.0
2015-Jul-31 22:33N 40°39' W 074°10'3 0.6
2015-Jul-31 18:18N 40°39' W 074°07'0 0.0
2015-Jul-31 13:12N 40°39' W 074°07'3 4.8
2015-Jul-31 12:33N 40°40' W 074°03'0 0.3
2015-Jul-31 11:33N 40°40' W 074°03'6 6.2
2015-Jul-31 10:33N 40°45' W 073°58'4 4.2
2015-Jul-31 09:33N 40°48' W 073°54'0 0.0
2015-Jul-31 08:33N 40°48' W 073°54'0 0.0
2015-Jul-31 07:28N 40°48' W 073°54'0 0.0
2015-Jul-31 06:32N 40°48' W 073°54'0 0.0
2015-Jul-31 04:29N 40°48' W 073°54'0 0.0
2015-Jul-31 02:23N 40°48' W 073°54'3 0.2
2015-Jul-30 13:15N 40°46' W 073°57'5 7.5
2015-Jul-30 12:34N 40°41' W 074°01'3 2.8
2015-Jul-30 11:31N 40°39' W 074°03'0 0.0
2015-Jul-30 10:31N 40°39' W 074°03'0 0.1
2015-Jul-30 09:31N 40°39' W 074°03'0 0.2
2015-Jul-30 08:31N 40°39' W 074°03'0 0.0
2015-Jul-30 07:31N 40°39' W 074°03'0 0.0
2015-Jul-30 06:33N 40°39' W 074°03'4 3.6
2015-Jul-30 05:33N 40°35' W 074°02'10 5.1
2015-Jul-30 03:31N 40°27' W 073°53'8 7.6
2015-Jul-30 02:28N 40°19' W 073°54'8 8.4
2015-Jul-30 01:33N 40°11' W 073°55'8 8.1
2015-Jul-30 00:33N 40°03' W 073°56'8 8.1
2015-Jul-29 23:33N 39°55' W 073°57'8 8.0
2015-Jul-29 22:33N 39°47' W 073°57'8 7.9
2015-Jul-29 21:32N 39°40' W 074°01'9 7.8
2015-Jul-29 20:24N 39°32' W 074°07'7 7.6
2015-Jul-29 19:28N 39°26' W 074°11'53 7.6
2015-Jul-29 12:33N 38°48' W 074°58'6 6.3
2015-Jul-29 11:33N 38°53' W 075°04'7 6.1
2015-Jul-29 10:27N 38°59' W 075°08'5 5.9
2015-Jul-29 09:33N 39°04' W 075°10'7 6.2
2015-Jul-29 08:29N 39°09' W 075°15'8 8.1
2015-Jul-29 07:33N 39°16' W 075°20'10 9.6
2015-Jul-29 06:33N 39°23' W 075°29'9 8.9
2015-Jul-29 05:33N 39°31' W 075°33'5 4.5
2015-Jul-29 04:33N 39°35' W 075°36'0 0.0
2015-Jul-29 03:33N 39°35' W 075°36'0 0.0
2015-Jul-29 02:31N 39°35' W 075°36'0 0.0
2015-Jul-29 01:31N 39°35' W 075°36'0 0.0
2015-Jul-29 00:31N 39°35' W 075°36'0 0.0
2015-Jul-28 23:31N 39°35' W 075°36'0 0.0
2015-Jul-28 22:31N 39°35' W 075°36'0 0.0
2015-Jul-28 21:31N 39°35' W 075°36'0 0.0
2015-Jul-28 20:25N 39°35' W 075°36'0 0.0
2015-Jul-28 19:31N 39°35' W 075°36'0 0.0
2015-Jul-28 18:31N 39°35' W 075°36'0 0.0
2015-Jul-28 17:31N 39°35' W 075°36'0 0.0
2015-Jul-28 16:31N 39°35' W 075°36'0 0.0
2015-Jul-28 15:31N 39°35' W 075°36'0 0.0
2015-Jul-28 14:31N 39°35' W 075°36'0 0.0
2015-Jul-28 13:31N 39°35' W 075°36'0 0.0
2015-Jul-28 12:33N 39°35' W 075°36'0 0.0
2015-Jul-28 11:33N 39°35' W 075°36'0 0.0
2015-Jul-28 10:33N 39°35' W 075°35'3 2.8
2015-Jul-28 09:33N 39°33' W 075°33'0 0.1
2015-Jul-28 08:31N 39°33' W 075°33'0 0.0
2015-Jul-28 07:31N 39°33' W 075°33'0 0.0
2015-Jul-28 06:31N 39°33' W 075°33'0 0.0
2015-Jul-28 05:31N 39°33' W 075°33'0 0.0
2015-Jul-28 04:31N 39°33' W 075°33'0 0.0
2015-Jul-28 03:31N 39°33' W 075°33'0 0.2
2015-Jul-28 02:31N 39°33' W 075°33'0 0.0
2015-Jul-28 01:31N 39°33' W 075°33'0 0.0
2015-Jul-28 00:31N 39°33' W 075°33'0 0.0
2015-Jul-27 23:31N 39°33' W 075°33'0 0.0
2015-Jul-27 22:31N 39°33' W 075°33'0 0.0
2015-Jul-27 21:31N 39°33' W 075°33'0 0.1
2015-Jul-27 20:31N 39°33' W 075°33'0 0.2
2015-Jul-27 19:31N 39°33' W 075°33'0 0.0
2015-Jul-27 18:34N 39°33' W 075°33'0 0.0
2015-Jul-27 17:33N 39°33' W 075°33'0 0.0
2015-Jul-27 16:33N 39°33' W 075°33'0 0.0
2015-Jul-27 15:33N 39°33' W 075°33'0 0.0
2015-Jul-27 14:33N 39°33' W 075°33'0 0.2
2015-Jul-27 13:33N 39°33' W 075°33'0 0.1
2015-Jul-27 12:33N 39°33' W 075°33'0 0.0
2015-Jul-27 11:33N 39°33' W 075°33'0 0.0
2015-Jul-27 10:33N 39°33' W 075°33'0 0.0
2015-Jul-27 09:33N 39°33' W 075°33'0 0.2
2015-Jul-27 08:33N 39°33' W 075°33'0 0.0
2015-Jul-27 07:33N 39°33' W 075°33'0 0.0
2015-Jul-27 06:33N 39°33' W 075°33'0 0.0
2015-Jul-27 05:33N 39°33' W 075°33'0 0.0
2015-Jul-27 04:33N 39°33' W 075°33'0 0.0
2015-Jul-27 03:33N 39°33' W 075°33'0 0.1
2015-Jul-27 02:33N 39°33' W 075°33'0 0.1
2015-Jul-27 01:33N 39°33' W 075°33'0 0.1
2015-Jul-27 00:33N 39°33' W 075°33'0 0.0
2015-Jul-26 23:33N 39°33' W 075°33'0 0.0
2015-Jul-26 22:33N 39°33' W 075°33'0 0.0
2015-Jul-26 21:33N 39°33' W 075°33'0 0.0
2015-Jul-26 20:33N 39°33' W 075°33'0 0.0
2015-Jul-26 19:33N 39°33' W 075°33'0 0.2
2015-Jul-26 18:33N 39°33' W 075°33'0 0.0
2015-Jul-26 17:33N 39°33' W 075°33'0 0.0
2015-Jul-26 16:33N 39°33' W 075°33'0 0.0
2015-Jul-26 15:33N 39°33' W 075°33'0 0.0
2015-Jul-26 14:33N 39°33' W 075°33'0 0.0
2015-Jul-26 13:33N 39°33' W 075°33'0 0.2
2015-Jul-26 12:33N 39°33' W 075°33'0 0.1
2015-Jul-26 11:33N 39°33' W 075°33'0 0.0
2015-Jul-26 10:34N 39°33' W 075°33'6 5.9
2015-Jul-26 09:33N 39°27' W 075°34'1010.1
2015-Jul-26 08:33N 39°20' W 075°25'1010.1
2015-Jul-26 07:34N 39°12' W 075°17'1010.3
2015-Jul-26 06:33N 39°03' W 075°10'1010.5
2015-Jul-26 05:33N 38°53' W 075°04'9 9.4
2015-Jul-26 04:33N 38°45' W 074°58'10 9.6
2015-Jul-26 03:34N 38°36' W 074°58'11 9.5
2015-Jul-26 02:24N 38°25' W 074°58'  

Dump ship's entire track history